Time;durP1;ratioP1;P1;durP2;ratioP2;P2;SDS_P1;SDS_P2;PMS_P1;PMS_P2;Temp;Humidity;BMP_temperature;BMP_pressure;BME280_temperature;BME280_humidity;BME280_pressure;Samples;Min_cycle;Max_cycle;Signal;HPM_P1;HPM_P2
2021/06/19 00:00:39;;;;;;;;;;;26.10;60.80;;;;;;4362129;32;31375;-71
2021/06/19 00:03:06;;;;;;;;;;;26.00;60.80;;;;;;4348012;32;38046;-71
2021/06/19 00:05:37;;;;;;;;;;;26.00;60.90;;;;;;4348822;32;40208;-71
2021/06/19 00:08:04;;;;;;;;;;;25.90;61.00;;;;;;4361640;32;34694;-71
2021/06/19 00:10:32;;;;;;;;;;;25.90;61.20;;;;;;4361470;32;43678;-72
2021/06/19 00:13:02;;;;;;;;;;;25.90;61.20;;;;;;4348332;32;41498;-72
2021/06/19 00:15:31;;;;;;;;;;;25.90;61.20;;;;;;4361868;32;31881;-70
2021/06/19 00:17:59;;;;;;;;;;;25.90;61.30;;;;;;4348063;32;36204;-71
2021/06/19 00:20:27;;;;;;;;;;;25.90;61.20;;;;;;4349265;32;20013;-71
2021/06/19 00:22:54;;;;;;;;;;;25.90;61.20;;;;;;4361488;32;26302;-71
2021/06/19 00:25:21;;;;;;;;;;;25.90;61.20;;;;;;4361338;32;37044;-71
2021/06/19 00:27:49;;;;;;;;;;;25.90;61.20;;;;;;4360606;32;37770;-71
2021/06/19 00:30:17;;;;;;;;;;;25.90;61.20;;;;;;4335208;32;43037;-71
2021/06/19 00:32:45;;;;;;;;;;;25.90;61.30;;;;;;4347613;32;43631;-71
2021/06/19 00:35:13;;;;;;;;;;;25.80;61.30;;;;;;4361139;32;40459;-72
2021/06/19 00:37:43;;;;;;;;;;;25.80;61.30;;;;;;4361376;32;33423;-71
2021/06/19 00:40:11;;;;;;;;;;;25.80;61.40;;;;;;4361329;32;23387;-72
2021/06/19 00:42:42;;;;;;;;;;;25.70;61.40;;;;;;4335656;32;36236;-71
2021/06/19 00:45:09;;;;;;;;;;;25.70;61.60;;;;;;4360909;32;39258;-71
2021/06/19 00:47:38;;;;;;;;;;;25.60;61.70;;;;;;4347818;32;32291;-71
2021/06/19 00:50:07;;;;;;;;;;;25.60;62.00;;;;;;4335401;32;40191;-71
2021/06/19 00:52:34;;;;;;;;;;;25.50;62.10;;;;;;4348126;32;28064;-71
2021/06/19 00:55:02;;;;;;;;;;;25.50;62.20;;;;;;4361801;32;20448;-71
2021/06/19 00:57:29;;;;;;;;;;;25.50;62.20;;;;;;4347893;32;33944;-71
2021/06/19 00:59:57;;;;;;;;;;;25.50;62.20;;;;;;4361123;32;37490;-71
2021/06/19 01:02:25;;;;;;;;;;;25.50;62.20;;;;;;4360950;32;24224;-71
2021/06/19 01:04:52;;;;;;;;;;;25.50;62.20;;;;;;4347414;32;35527;-71
2021/06/19 01:07:19;;;;;;;;;;;25.40;62.40;;;;;;4361106;32;36225;-71
2021/06/19 01:09:46;;;;;;;;;;;25.40;62.60;;;;;;4347535;32;33849;-71
2021/06/19 01:12:16;;;;;;;;;;;25.30;62.60;;;;;;4360774;32;32052;-71
2021/06/19 01:14:46;;;;;;;;;;;25.30;62.70;;;;;;4361309;32;29571;-71
2021/06/19 01:17:14;;;;;;;;;;;25.30;62.90;;;;;;4360997;32;32978;-71
2021/06/19 01:19:41;;;;;;;;;;;25.20;62.90;;;;;;4360602;32;41978;-71
2021/06/19 01:22:14;;;;;;;;;;;25.20;63.00;;;;;;4361814;32;20005;-71
2021/06/19 01:24:41;;;;;;;;;;;25.20;63.00;;;;;;4360570;32;43703;-71
2021/06/19 01:27:08;;;;;;;;;;;25.20;63.10;;;;;;4361314;32;20051;-72
2021/06/19 01:29:35;;;;;;;;;;;25.20;63.00;;;;;;4360209;32;35139;-71
2021/06/19 01:32:03;;;;;;;;;;;25.20;62.90;;;;;;4360234;32;36929;-71
2021/06/19 01:34:31;;;;;;;;;;;25.20;62.80;;;;;;4360706;32;36795;-71
2021/06/19 01:37:04;;;;;;;;;;;25.20;62.90;;;;;;4347220;32;34633;-71
2021/06/19 01:39:31;;;;;;;;;;;25.20;63.10;;;;;;4346824;32;30207;-71
2021/06/19 01:42:01;;;;;;;;;;;25.20;63.10;;;;;;4360625;32;30891;-71
2021/06/19 01:44:28;;;;;;;;;;;25.20;63.00;;;;;;4360750;32;26630;-71
2021/06/19 01:46:58;;;;;;;;;;;25.20;63.00;;;;;;4347319;32;36852;-71
2021/06/19 01:49:35;;;;;;;;;;;25.20;63.00;;;;;;4360144;32;37831;-71
2021/06/19 01:52:05;;;;;;;;;;;25.20;62.90;;;;;;4360512;32;38173;-71
2021/06/19 01:54:39;;;;;;;;;;;25.20;63.10;;;;;;4360461;32;39217;-69
2021/06/19 01:57:09;;;;;;;;;;;25.20;63.10;;;;;;4360608;32;38384;-69
2021/06/19 01:59:36;;;;;;;;;;;25.20;63.10;;;;;;4347096;33;37744;-69
2021/06/19 02:02:03;;;;;;;;;;;25.20;63.20;;;;;;4360126;33;37729;-69
2021/06/19 02:04:31;;;;;;;;;;;25.20;63.10;;;;;;4346622;33;35459;-69
2021/06/19 02:06:59;;;;;;;;;;;25.20;63.10;;;;;;4360204;33;43664;-70
2021/06/19 02:09:26;;;;;;;;;;;25.10;63.20;;;;;;4360713;33;28035;-69
2021/06/19 02:11:56;;;;;;;;;;;25.10;63.20;;;;;;4334548;33;36095;-69
2021/06/19 02:14:26;;;;;;;;;;;25.10;63.30;;;;;;4360295;33;38181;-69
2021/06/19 02:16:56;;;;;;;;;;;25.10;63.30;;;;;;4347218;33;39034;-69
2021/06/19 02:19:23;;;;;;;;;;;25.00;63.40;;;;;;4359742;33;40581;-71
2021/06/19 02:21:53;;;;;;;;;;;25.00;63.50;;;;;;4360303;33;31371;-71
2021/06/19 02:24:23;;;;;;;;;;;25.00;63.60;;;;;;4360282;33;39307;-71
2021/06/19 02:26:51;;;;;;;;;;;24.90;63.70;;;;;;4360108;33;41046;-71
2021/06/19 02:29:18;;;;;;;;;;;24.90;63.80;;;;;;4359625;33;40473;-71
2021/06/19 02:31:47;;;;;;;;;;;24.90;63.80;;;;;;4359989;33;34528;-71
2021/06/19 02:34:18;;;;;;;;;;;24.90;63.90;;;;;;4359511;33;43908;-71
2021/06/19 02:36:53;;;;;;;;;;;24.90;63.90;;;;;;4360048;33;29068;-71
2021/06/19 02:39:26;;;;;;;;;;;24.90;64.80;;;;;;4360625;33;20017;-71
2021/06/19 02:41:56;;;;;;;;;;;24.90;64.00;;;;;;4347210;33;20323;-71
2021/06/19 02:44:26;;;;;;;;;;;24.90;64.10;;;;;;4360305;33;20047;-71
2021/06/19 02:46:53;;;;;;;;;;;24.80;64.00;;;;;;4360989;33;20424;-71
2021/06/19 02:49:23;;;;;;;;;;;24.80;64.10;;;;;;4360923;32;20016;-71
2021/06/19 02:51:56;;;;;;;;;;;24.70;64.10;;;;;;4363556;32;20457;-72
2021/06/19 02:54:23;;;;;;;;;;;24.70;64.30;;;;;;4363522;32;20041;-71
2021/06/19 02:56:58;;;;;;;;;;;24.70;64.30;;;;;;4350026;32;20084;-71
2021/06/19 02:59:26;;;;;;;;;;;24.70;64.60;;;;;;4363735;32;19997;-71
2021/06/19 03:01:56;;;;;;;;;;;24.60;64.70;;;;;;4361945;32;20011;-70
2021/06/19 03:04:26;;;;;;;;;;;24.60;65.50;;;;;;4363753;32;20076;-71
2021/06/19 03:06:53;;;;;;;;;;;24.60;64.80;;;;;;4338165;32;20001;-71
2021/06/19 03:09:20;;;;;;;;;;;24.60;64.80;;;;;;4363723;32;20473;-71
2021/06/19 03:11:47;;;;;;;;;;;24.60;64.80;;;;;;4363272;32;20012;-71
2021/06/19 03:14:17;;;;;;;;;;;24.60;64.80;;;;;;4363653;32;20015;-71
2021/06/19 03:16:47;;;;;;;;;;;24.60;65.50;;;;;;4363605;32;20424;-71
2021/06/19 03:19:17;;;;;;;;;;;24.60;64.80;;;;;;4363458;32;20015;-71
2021/06/19 03:21:45;;;;;;;;;;;24.60;64.90;;;;;;4350482;32;20053;-71
2021/06/19 03:24:12;;;;;;;;;;;24.60;64.90;;;;;;4363373;32;20016;-70
2021/06/19 03:26:42;;;;;;;;;;;24.60;64.90;;;;;;4363077;32;20023;-71
2021/06/19 03:29:12;;;;;;;;;;;24.60;65.00;;;;;;4349835;32;19997;-71
2021/06/19 03:31:39;;;;;;;;;;;24.50;65.00;;;;;;4363428;32;20023;-71
2021/06/19 03:34:07;;;;;;;;;;;24.50;65.20;;;;;;4363190;32;20023;-71
2021/06/19 03:36:37;;;;;;;;;;;24.50;65.20;;;;;;4363308;32;20381;-71
2021/06/19 03:39:07;;;;;;;;;;;24.50;65.10;;;;;;4363562;32;20043;-71
2021/06/19 03:41:40;;;;;;;;;;;24.60;65.10;;;;;;4362675;32;20447;-71
2021/06/19 03:44:08;;;;;;;;;;;24.60;65.10;;;;;;4363307;32;20009;-71
2021/06/19 03:46:38;;;;;;;;;;;24.60;65.10;;;;;;4349318;32;20065;-71
2021/06/19 03:49:06;;;;;;;;;;;24.60;64.90;;;;;;4362471;32;20018;-71
2021/06/19 03:51:33;;;;;;;;;;;24.60;64.90;;;;;;4349458;32;19997;-71
2021/06/19 03:54:00;;;;;;;;;;;24.60;65.00;;;;;;4362949;32;20066;-71
2021/06/19 03:56:27;;;;;;;;;;;24.50;64.90;;;;;;4363052;32;20009;-71
2021/06/19 03:58:54;;;;;;;;;;;24.60;65.00;;;;;;4362937;32;20027;-71
2021/06/19 04:01:24;;;;;;;;;;;24.60;65.00;;;;;;4362387;32;20075;-71
2021/06/19 04:03:52;;;;;;;;;;;24.50;65.00;;;;;;4362343;32;20012;-71
2021/06/19 04:06:19;;;;;;;;;;;24.50;64.90;;;;;;4349374;32;20013;-71
2021/06/19 04:08:46;;;;;;;;;;;24.50;65.00;;;;;;4362817;32;20410;-71
2021/06/19 04:11:16;;;;;;;;;;;24.50;65.00;;;;;;4347579;32;46437;-71
2021/06/19 04:13:43;;;;;;;;;;;24.40;65.00;;;;;;4361616;32;39836;-71
2021/06/19 04:16:13;;;;;;;;;;;24.40;65.10;;;;;;4362314;32;20072;-71
2021/06/19 04:18:46;;;;;;;;;;;24.40;65.20;;;;;;4362935;32;20068;-71
2021/06/19 04:21:17;;;;;;;;;;;24.40;65.30;;;;;;4362360;32;20013;-71
2021/06/19 04:23:49;;;;;;;;;;;24.40;65.30;;;;;;4362590;32;20011;-71
2021/06/19 04:26:20;;;;;;;;;;;24.30;65.40;;;;;;4361583;32;20001;-71
2021/06/19 04:28:47;;;;;;;;;;;24.30;65.50;;;;;;4349059;32;20409;-71
2021/06/19 04:31:16;;;;;;;;;;;24.30;65.70;;;;;;4362540;32;20004;-70
2021/06/19 04:33:46;;;;;;;;;;;24.20;65.80;;;;;;4360950;32;39127;-71
2021/06/19 04:36:13;;;;;;;;;;;24.20;65.90;;;;;;4348975;32;20021;-72
2021/06/19 04:38:43;;;;;;;;;;;24.20;66.10;;;;;;4361451;32;20064;-70
2021/06/19 04:41:30;;;;;;;;;;;24.20;66.20;;;;;;4348640;32;20023;-70
2021/06/19 04:46:30;;;;;;;;;;;24.10;66.50;;;;;;4360891;32;34467;-70
2021/06/19 04:49:02;;;;;;;;;;;24.00;66.60;;;;;;4348129;32;34352;-70
2021/06/19 04:51:36;;;;;;;;;;;24.00;66.80;;;;;;4335500;32;44565;-70
2021/06/19 04:54:08;;;;;;;;;;;24.00;67.00;;;;;;4361034;32;45278;-71
2021/06/19 04:56:42;;;;;;;;;;;23.90;67.20;;;;;;4348396;32;20437;-70
2021/06/19 04:59:13;;;;;;;;;;;23.90;67.40;;;;;;4336393;32;19993;-70
2021/06/19 05:01:43;;;;;;;;;;;23.90;67.50;;;;;;4361776;32;20068;-71
2021/06/19 05:04:16;;;;;;;;;;;23.90;67.50;;;;;;4348156;32;20433;-70
2021/06/19 05:06:43;;;;;;;;;;;23.90;67.50;;;;;;4361633;32;20373;-70
2021/06/19 05:09:13;;;;;;;;;;;24.00;67.50;;;;;;4361636;32;20094;-70
2021/06/19 05:11:43;;;;;;;;;;;23.90;67.60;;;;;;4348315;32;20001;-70
2021/06/19 05:14:15;;;;;;;;;;;23.80;67.70;;;;;;4348173;32;20024;-70
2021/06/19 05:16:46;;;;;;;;;;;23.90;67.90;;;;;;4348270;32;20031;-71
2021/06/19 05:19:18;;;;;;;;;;;23.90;68.00;;;;;;4361749;32;20001;-70
2021/06/19 05:21:45;;;;;;;;;;;23.90;68.10;;;;;;4361985;32;20047;-70
2021/06/19 05:24:18;;;;;;;;;;;23.90;68.00;;;;;;4361691;32;20013;-71
2021/06/19 05:26:48;;;;;;;;;;;23.80;68.10;;;;;;4348323;32;20009;-71
2021/06/19 05:29:23;;;;;;;;;;;23.80;68.40;;;;;;4347502;32;19989;-70
2021/06/19 05:31:55;;;;;;;;;;;23.70;68.50;;;;;;4361437;32;20358;-70
2021/06/19 05:34:22;;;;;;;;;;;23.80;68.60;;;;;;4361762;32;20402;-70
2021/06/19 05:36:49;;;;;;;;;;;23.70;68.60;;;;;;4361759;32;20065;-70
2021/06/19 05:39:16;;;;;;;;;;;23.70;68.60;;;;;;4361637;32;20023;-71
2021/06/19 05:41:44;;;;;;;;;;;23.70;68.70;;;;;;4347908;32;20030;-70
2021/06/19 05:44:14;;;;;;;;;;;23.70;68.90;;;;;;4347917;32;20068;-70
2021/06/19 05:46:42;;;;;;;;;;;23.80;69.10;;;;;;4361474;32;20097;-71
2021/06/19 05:49:12;;;;;;;;;;;23.70;68.90;;;;;;4361377;32;20015;-70
2021/06/19 05:51:42;;;;;;;;;;;23.70;68.80;;;;;;4360972;32;20021;-70
2021/06/19 05:54:09;;;;;;;;;;;23.70;68.80;;;;;;4361007;32;20458;-71
2021/06/19 05:56:36;;;;;;;;;;;23.70;68.80;;;;;;4361049;32;20009;-71
2021/06/19 05:59:06;;;;;;;;;;;23.70;68.80;;;;;;4361056;32;20008;-70
2021/06/19 06:01:33;;;;;;;;;;;23.60;68.90;;;;;;4360581;32;20020;-70
2021/06/19 06:04:03;;;;;;;;;;;23.60;69.00;;;;;;4361067;33;21074;-70
2021/06/19 06:06:31;;;;;;;;;;;23.60;69.10;;;;;;4361391;33;20147;-70
2021/06/19 06:09:05;;;;;;;;;;;23.50;69.30;;;;;;4347549;33;20005;-71
2021/06/19 06:11:34;;;;;;;;;;;23.50;69.20;;;;;;4361188;33;20009;-71
2021/06/19 06:14:04;;;;;;;;;;;23.60;69.30;;;;;;4361053;33;20060;-71
2021/06/19 06:16:32;;;;;;;;;;;23.60;69.30;;;;;;4334780;33;20086;-71
2021/06/19 06:18:59;;;;;;;;;;;23.60;69.30;;;;;;4360928;33;20012;-71
2021/06/19 06:21:28;;;;;;;;;;;23.60;69.40;;;;;;4360974;33;20013;-71
2021/06/19 06:23:58;;;;;;;;;;;23.60;69.30;;;;;;4347426;32;20501;-71
2021/06/19 06:26:28;;;;;;;;;;;23.60;69.30;;;;;;4363715;32;22348;-71
2021/06/19 06:28:58;;;;;;;;;;;23.60;69.50;;;;;;4364052;32;20018;-71
2021/06/19 06:31:51;;;;;;;;;;;23.60;69.40;;;;;;4363776;32;20001;-70
2021/06/19 06:34:24;;;;;;;;;;;23.60;69.50;;;;;;4364475;32;20013;-71
2021/06/19 06:36:58;;;;;;;;;;;23.60;69.50;;;;;;4364098;32;20017;-71
2021/06/19 06:39:28;;;;;;;;;;;23.60;69.60;;;;;;4363668;32;20321;-72
2021/06/19 06:41:57;;;;;;;;;;;23.60;69.60;;;;;;4363822;32;20016;-71
2021/06/19 06:44:27;;;;;;;;;;;23.50;69.70;;;;;;4364507;32;20436;-70
2021/06/19 06:47:00;;;;;;;;;;;23.50;70.00;;;;;;4363921;32;20000;-71
2021/06/19 06:49:27;;;;;;;;;;;23.50;70.00;;;;;;4350936;32;20048;-70
2021/06/19 06:51:57;;;;;;;;;;;23.40;70.10;;;;;;4363590;32;20009;-71
2021/06/19 06:54:28;;;;;;;;;;;23.40;70.20;;;;;;4364003;32;20011;-70
2021/06/19 06:56:58;;;;;;;;;;;23.50;70.30;;;;;;4350340;32;20493;-70
2021/06/19 06:59:25;;;;;;;;;;;23.40;70.20;;;;;;4363389;32;20015;-71
2021/06/19 07:01:52;;;;;;;;;;;23.40;70.40;;;;;;4363321;32;20401;-70
2021/06/19 07:04:25;;;;;;;;;;;23.40;70.40;;;;;;4363680;32;20052;-70
2021/06/19 07:06:57;;;;;;;;;;;23.50;70.40;;;;;;4363472;32;20016;-70
2021/06/19 07:09:27;;;;;;;;;;;23.40;70.30;;;;;;4363740;32;20044;-71
2021/06/19 07:12:00;;;;;;;;;;;23.50;70.40;;;;;;4363003;32;20005;-71
2021/06/19 07:14:30;;;;;;;;;;;23.50;70.30;;;;;;4363642;32;20402;-70
2021/06/19 07:17:00;;;;;;;;;;;23.50;70.40;;;;;;4349981;32;20004;-70
2021/06/19 07:19:31;;;;;;;;;;;23.50;70.30;;;;;;4349886;32;20001;-70
2021/06/19 07:22:05;;;;;;;;;;;23.50;70.30;;;;;;4349918;32;20390;-70
2021/06/19 07:24:37;;;;;;;;;;;23.50;70.20;;;;;;4350141;32;20072;-71
2021/06/19 07:27:05;;;;;;;;;;;23.60;70.30;;;;;;4349908;32;20410;-70
2021/06/19 07:29:38;;;;;;;;;;;23.60;70.10;;;;;;4363591;32;20060;-71
2021/06/19 07:32:08;;;;;;;;;;;23.60;70.10;;;;;;4363094;32;20398;-71
2021/06/19 07:34:36;;;;;;;;;;;23.60;70.20;;;;;;4363225;32;20019;-70
2021/06/19 07:37:08;;;;;;;;;;;23.60;70.20;;;;;;4362784;32;20017;-70
2021/06/19 07:39:44;;;;;;;;;;;23.60;70.20;;;;;;4362626;32;20017;-70
2021/06/19 07:42:12;;;;;;;;;;;23.60;70.30;;;;;;4349907;32;20017;-70
2021/06/19 07:44:44;;;;;;;;;;;23.60;70.40;;;;;;4349241;32;20406;-72
2021/06/19 07:47:16;;;;;;;;;;;23.60;70.40;;;;;;4363303;32;20009;-70
2021/06/19 07:49:51;;;;;;;;;;;23.60;70.20;;;;;;4349145;32;20432;-70
2021/06/19 07:52:19;;;;;;;;;;;23.60;70.30;;;;;;4337508;32;20015;-71
2021/06/19 07:54:52;;;;;;;;;;;23.70;70.40;;;;;;4349204;32;20007;-70
2021/06/19 07:57:19;;;;;;;;;;;23.60;70.30;;;;;;4362964;32;20398;-70
2021/06/19 07:59:51;;;;;;;;;;;23.70;70.30;;;;;;4349098;32;20019;-70
2021/06/19 08:02:25;;;;;;;;;;;23.70;70.40;;;;;;4349183;32;20080;-70
2021/06/19 08:04:54;;;;;;;;;;;23.70;70.30;;;;;;4362582;32;20464;-71
2021/06/19 08:07:22;;;;;;;;;;;23.70;70.20;;;;;;4362532;32;20239;-70
2021/06/19 08:09:54;;;;;;;;;;;23.70;70.10;;;;;;4362724;32;20046;-71
2021/06/19 08:12:23;;;;;;;;;;;23.70;70.10;;;;;;4362868;32;20001;-71
2021/06/19 08:14:50;;;;;;;;;;;23.70;70.20;;;;;;4362298;32;20005;-71
2021/06/19 08:17:26;;;;;;;;;;;23.80;70.30;;;;;;4362664;32;20039;-70
2021/06/19 08:20:02;;;;;;;;;;;23.70;70.20;;;;;;4362431;32;20020;-70
2021/06/19 08:22:34;;;;;;;;;;;23.70;70.30;;;;;;4362377;32;20005;-70
2021/06/19 08:25:08;;;;;;;;;;;23.70;70.40;;;;;;4362258;32;20043;-70
2021/06/19 08:27:39;;;;;;;;;;;23.70;70.50;;;;;;4362504;32;20017;-71
2021/06/19 08:30:09;;;;;;;;;;;23.70;70.60;;;;;;4361921;32;20019;-70
2021/06/19 08:32:36;;;;;;;;;;;23.80;70.70;;;;;;4348333;32;20323;-70
2021/06/19 08:35:06;;;;;;;;;;;23.70;70.60;;;;;;4349427;32;20027;-70
2021/06/19 08:37:33;;;;;;;;;;;23.70;70.80;;;;;;4362517;32;20012;-71
2021/06/19 08:40:01;;;;;;;;;;;23.70;70.90;;;;;;4361704;32;20016;-70
2021/06/19 08:42:33;;;;;;;;;;;23.70;71.00;;;;;;4362267;32;20017;-70
2021/06/19 08:45:03;;;;;;;;;;;23.70;70.90;;;;;;4362488;32;20017;-70
2021/06/19 08:47:39;;;;;;;;;;;23.70;71.00;;;;;;4361612;32;20022;-71
2021/06/19 08:50:10;;;;;;;;;;;23.70;71.10;;;;;;4361882;32;20398;-71
2021/06/19 08:52:38;;;;;;;;;;;23.80;71.00;;;;;;4348472;32;20003;-71
2021/06/19 08:55:11;;;;;;;;;;;23.80;71.00;;;;;;4361614;32;20015;-71
2021/06/19 08:57:45;;;;;;;;;;;23.80;71.10;;;;;;4361874;32;20016;-70
2021/06/19 09:00:14;;;;;;;;;;;23.80;71.00;;;;;;4362242;32;20008;-71
2021/06/19 09:02:46;;;;;;;;;;;23.80;71.20;;;;;;4361293;32;20378;-71
2021/06/19 09:05:17;;;;;;;;;;;23.90;71.20;;;;;;4361656;32;22867;-71
2021/06/19 09:07:53;;;;;;;;;;;23.90;71.10;;;;;;4361551;32;21866;-71
2021/06/19 09:10:29;;;;;;;;;;;23.90;71.10;;;;;;4362124;32;20346;-70
2021/06/19 09:13:03;;;;;;;;;;;23.90;71.10;;;;;;4361968;32;20012;-72
2021/06/19 09:15:47;;;;;;;;;;;23.90;71.00;;;;;;4362006;32;20042;-71
2021/06/19 09:18:22;;;;;;;;;;;23.90;71.10;;;;;;4361132;32;24672;-70
2021/06/19 09:20:52;;;;;;;;;;;23.90;71.10;;;;;;4335747;32;19996;-71
2021/06/19 09:23:32;;;;;;;;;;;24.00;71.10;;;;;;4361423;32;20008;-71
2021/06/19 09:26:14;;;;;;;;;;;24.00;71.10;;;;;;4360839;32;20664;-71
2021/06/19 09:28:59;;;;;;;;;;;24.00;71.10;;;;;;4361285;32;22672;-71
2021/06/19 09:31:45;;;;;;;;;;;24.00;71.10;;;;;;4361207;32;20390;-71
2021/06/19 09:34:21;;;;;;;;;;;24.00;71.10;;;;;;4361343;32;22646;-71
2021/06/19 09:36:50;;;;;;;;;;;24.00;71.10;;;;;;4361596;32;20056;-70
2021/06/19 09:39:22;;;;;;;;;;;24.10;71.20;;;;;;4361550;32;20403;-71
2021/06/19 09:41:52;;;;;;;;;;;24.10;71.10;;;;;;4347613;32;20019;-71
2021/06/19 09:44:37;;;;;;;;;;;24.10;71.20;;;;;;4347453;32;20394;-71
2021/06/19 09:47:05;;;;;;;;;;;24.10;71.20;;;;;;4361177;32;23187;-71
2021/06/19 09:49:33;;;;;;;;;;;24.10;71.20;;;;;;4347721;32;20047;-71
2021/06/19 09:52:04;;;;;;;;;;;24.10;71.20;;;;;;4360233;32;29262;-71
2021/06/19 09:54:40;;;;;;;;;;;24.10;71.20;;;;;;4360376;32;42627;-71
2021/06/19 09:57:13;;;;;;;;;;;24.20;71.30;;;;;;4347041;32;30905;-71
2021/06/19 09:59:45;;;;;;;;;;;24.20;72.20;;;;;;4346544;32;33542;-71
2021/06/19 10:02:18;;;;;;;;;;;24.20;71.40;;;;;;4360756;32;20027;-71
2021/06/19 10:04:56;;;;;;;;;;;24.20;71.40;;;;;;4347965;33;20387;-71
2021/06/19 10:07:27;;;;;;;;;;;24.20;71.40;;;;;;4346586;33;44703;-71
2021/06/19 10:09:55;;;;;;;;;;;24.20;71.30;;;;;;4360311;33;43406;-71
2021/06/19 10:12:26;;;;;;;;;;;24.20;71.30;;;;;;4347805;33;20448;-72
2021/06/19 10:15:14;;;;;;;;;;;24.20;71.40;;;;;;4347694;33;20095;-70
2021/06/19 10:17:50;;;;;;;;;;;24.30;71.50;;;;;;4361555;33;20065;-72
2021/06/19 10:20:23;;;;;;;;;;;24.30;71.40;;;;;;4361614;33;20064;-70
2021/06/19 10:22:53;;;;;;;;;;;24.30;71.50;;;;;;4361565;33;20060;-71
2021/06/19 10:25:22;;;;;;;;;;;24.30;71.50;;;;;;4361295;33;20385;-71
2021/06/19 10:27:52;;;;;;;;;;;24.30;71.50;;;;;;4347561;33;20311;-71
2021/06/19 10:30:23;;;;;;;;;;;24.30;71.50;;;;;;4360629;33;20393;-71
2021/06/19 10:33:31;;;;;;;;;;;24.30;71.50;;;;;;4361324;33;20017;-72
2021/06/19 10:36:02;;;;;;;;;;;24.40;71.60;;;;;;4361027;33;20013;-72
2021/06/19 10:38:44;;;;;;;;;;;24.40;71.40;;;;;;4347465;33;20052;-72
2021/06/19 10:41:17;;;;;;;;;;;24.40;71.50;;;;;;4361317;33;20001;-72
2021/06/19 10:43:48;;;;;;;;;;;24.40;71.40;;;;;;4347353;33;20056;-71
2021/06/19 10:46:29;;;;;;;;;;;24.40;71.40;;;;;;4360710;33;20005;-71
2021/06/19 10:49:16;;;;;;;;;;;24.50;71.50;;;;;;4347176;33;27400;-70
2021/06/19 10:51:49;;;;;;;;;;;24.50;71.40;;;;;;4352601;33;20064;-72
2021/06/19 10:54:23;;;;;;;;;;;24.50;71.40;;;;;;4347255;33;20073;-70
2021/06/19 10:56:56;;;;;;;;;;;24.50;71.40;;;;;;4347363;33;22403;-72
2021/06/19 10:59:32;;;;;;;;;;;24.50;71.40;;;;;;4347353;33;20045;-72
2021/06/19 11:02:05;;;;;;;;;;;24.50;71.40;;;;;;4360107;33;20019;-71
2021/06/19 11:04:39;;;;;;;;;;;24.50;71.30;;;;;;4347591;33;20410;-72
2021/06/19 11:07:09;;;;;;;;;;;24.60;71.30;;;;;;4346980;33;20043;-71
2021/06/19 11:09:45;;;;;;;;;;;24.60;71.30;;;;;;4361121;33;20056;-72
2021/06/19 11:12:18;;;;;;;;;;;24.60;71.30;;;;;;4362585;32;20070;-72
2021/06/19 11:14:56;;;;;;;;;;;24.60;71.20;;;;;;4363321;32;20013;-71
2021/06/19 11:17:26;;;;;;;;;;;24.60;71.20;;;;;;4349935;32;20011;-72
2021/06/19 11:19:59;;;;;;;;;;;24.60;71.20;;;;;;4363367;32;20074;-72
2021/06/19 11:22:39;;;;;;;;;;;24.60;71.20;;;;;;4363138;32;20485;-72
2021/06/19 11:25:24;;;;;;;;;;;24.60;71.20;;;;;;4349622;32;20004;-72
2021/06/19 11:27:53;;;;;;;;;;;24.70;71.20;;;;;;4363316;32;20009;-72
2021/06/19 11:30:38;;;;;;;;;;;24.70;71.30;;;;;;4363564;32;20398;-72
2021/06/19 11:33:15;;;;;;;;;;;24.70;71.30;;;;;;4363097;32;20013;-72
2021/06/19 11:35:46;;;;;;;;;;;24.70;71.30;;;;;;4362422;32;34882;-71
2021/06/19 11:38:14;;;;;;;;;;;24.70;71.20;;;;;;4348603;32;45278;-72
2021/06/19 11:40:41;;;;;;;;;;;24.80;71.30;;;;;;4361674;32;41390;-72
2021/06/19 11:43:12;;;;;;;;;;;24.80;71.30;;;;;;4361566;32;43247;-72
2021/06/19 11:45:41;;;;;;;;;;;24.80;71.20;;;;;;4362080;32;43712;-72
2021/06/19 11:48:10;;;;;;;;;;;24.80;71.20;;;;;;4361756;32;42806;-72
2021/06/19 11:50:42;;;;;;;;;;;24.80;71.10;;;;;;4361982;32;45043;-71
2021/06/19 11:53:46;;;;;;;;;;;24.90;71.20;;;;;;4363104;32;20013;-72
2021/06/19 11:56:18;;;;;;;;;;;24.90;71.20;;;;;;4315757;33;40007;-72
2021/06/19 11:58:45;;;;;;;;;;;24.90;71.10;;;;;;4343541;32;46060;-72
2021/06/19 12:01:16;;;;;;;;;;;24.90;71.00;;;;;;4363001;32;20001;-72
2021/06/19 12:03:44;;;;;;;;;;;25.00;71.10;;;;;;4349064;32;20331;-71
2021/06/19 12:06:14;;;;;;;;;;;24.90;71.00;;;;;;4362918;32;20019;-71
2021/06/19 12:08:45;;;;;;;;;;;25.00;71.20;;;;;;4336947;32;20004;-72
2021/06/19 12:11:27;;;;;;;;;;;24.90;71.00;;;;;;4349418;32;20484;-71
2021/06/19 12:14:14;;;;;;;;;;;25.00;71.10;;;;;;4362935;32;20125;-72
2021/06/19 12:16:41;;;;;;;;;;;25.00;71.10;;;;;;4353213;32;41194;-72
2021/06/19 12:19:08;;;;;;;;;;;25.00;71.10;;;;;;4361093;32;44701;-72
2021/06/19 12:21:39;;;;;;;;;;;25.00;71.10;;;;;;4347644;32;44384;-71
2021/06/19 12:24:23;;;;;;;;;;;25.00;72.00;;;;;;4361734;32;44104;-72
2021/06/19 12:26:59;;;;;;;;;;;25.00;71.20;;;;;;4362071;32;24444;-72
2021/06/19 12:29:45;;;;;;;;;;;25.10;71.20;;;;;;4362399;32;20019;-72
2021/06/19 12:32:22;;;;;;;;;;;25.10;71.20;;;;;;4361353;32;26709;-72
2021/06/19 12:34:50;;;;;;;;;;;25.10;71.20;;;;;;4362168;32;20405;-72
2021/06/19 12:37:21;;;;;;;;;;;25.10;71.10;;;;;;4361780;32;20393;-72
2021/06/19 12:39:51;;;;;;;;;;;25.20;71.20;;;;;;4362807;32;20027;-71
2021/06/19 12:42:54;;;;;;;;;;;25.20;71.20;;;;;;4348664;32;20029;-72
2021/06/19 12:45:23;;;;;;;;;;;25.20;71.20;;;;;;4336045;32;44216;-72
2021/06/19 12:47:51;;;;;;;;;;;25.30;71.10;;;;;;4360640;32;42462;-73
2021/06/19 12:50:31;;;;;;;;;;;25.30;71.10;;;;;;4347543;32;31588;-72
2021/06/19 12:53:08;;;;;;;;;;;25.30;71.10;;;;;;4360846;32;19997;-72
2021/06/19 12:55:37;;;;;;;;;;;25.30;71.00;;;;;;4360896;32;42237;-72
2021/06/19 12:58:13;;;;;;;;;;;25.30;70.90;;;;;;4361807;32;20074;-72
2021/06/19 13:00:43;;;;;;;;;;;25.30;70.90;;;;;;4360984;32;43368;-72
2021/06/19 13:03:12;;;;;;;;;;;25.40;71.00;;;;;;4361528;32;20009;-72
2021/06/19 13:06:05;;;;;;;;;;;25.40;70.90;;;;;;4348488;32;20009;-72
2021/06/19 13:08:33;;;;;;;;;;;25.40;71.00;;;;;;4345325;32;43086;-72
2021/06/19 13:11:25;;;;;;;;;;;25.40;70.90;;;;;;4347070;32;44089;-72
2021/06/19 13:13:52;;;;;;;;;;;25.40;71.00;;;;;;4360926;32;37009;-72
2021/06/19 13:16:35;;;;;;;;;;;25.40;71.00;;;;;;4360742;32;44073;-72
2021/06/19 13:19:14;;;;;;;;;;;25.40;71.00;;;;;;4360295;32;42642;-72
2021/06/19 13:21:45;;;;;;;;;;;25.50;71.10;;;;;;4360550;32;41554;-72
2021/06/19 13:24:18;;;;;;;;;;;25.50;71.10;;;;;;4361018;32;39284;-72
2021/06/19 13:26:46;;;;;;;;;;;25.50;71.10;;;;;;4360852;32;39294;-72
2021/06/19 13:29:14;;;;;;;;;;;25.60;71.10;;;;;;4360117;32;44064;-72
2021/06/19 13:31:42;;;;;;;;;;;25.60;71.00;;;;;;4348321;32;20015;-73
2021/06/19 13:34:23;;;;;;;;;;;25.60;71.80;;;;;;4360950;32;20024;-72
2021/06/19 13:36:51;;;;;;;;;;;25.60;70.90;;;;;;4361357;32;20723;-73
2021/06/19 13:39:25;;;;;;;;;;;25.70;71.00;;;;;;4361010;32;20066;-72
2021/06/19 13:41:56;;;;;;;;;;;25.70;70.90;;;;;;4361222;32;21381;-72
2021/06/19 13:44:30;;;;;;;;;;;25.70;70.80;;;;;;4361711;32;20009;-73
2021/06/19 13:47:02;;;;;;;;;;;25.80;70.90;;;;;;4361769;32;20012;-72
2021/06/19 13:49:33;;;;;;;;;;;25.80;70.90;;;;;;4361546;32;20004;-72
2021/06/19 13:52:04;;;;;;;;;;;25.80;70.90;;;;;;4361388;32;20013;-72
2021/06/19 13:54:41;;;;;;;;;;;25.80;70.90;;;;;;4361431;32;20015;-72
2021/06/19 13:57:13;;;;;;;;;;;25.80;70.80;;;;;;4347662;32;23902;-73
2021/06/19 13:59:46;;;;;;;;;;;25.80;70.80;;;;;;4361036;32;20046;-72
2021/06/19 14:02:13;;;;;;;;;;;25.90;70.80;;;;;;4361000;32;20021;-72
2021/06/19 14:04:41;;;;;;;;;;;25.90;70.80;;;;;;4361383;32;20013;-72
2021/06/19 14:07:19;;;;;;;;;;;25.90;70.80;;;;;;4361524;32;20008;-72
2021/06/19 14:09:49;;;;;;;;;;;25.90;70.80;;;;;;4360258;33;43675;-72
2021/06/19 14:12:18;;;;;;;;;;;26.00;70.80;;;;;;4360972;33;20079;-72
2021/06/19 14:14:49;;;;;;;;;;;26.00;70.80;;;;;;4360151;33;42797;-73
2021/06/19 14:17:17;;;;;;;;;;;26.00;70.70;;;;;;4360191;33;44673;-73
2021/06/19 14:19:44;;;;;;;;;;;26.10;70.80;;;;;;4359796;33;39335;-72
2021/06/19 14:22:12;;;;;;;;;;;26.10;70.80;;;;;;4360309;33;44044;-72
2021/06/19 14:24:39;;;;;;;;;;;26.10;70.70;;;;;;4360163;33;44694;-72
2021/06/19 14:27:12;;;;;;;;;;;26.20;70.80;;;;;;4359699;33;44681;-73
2021/06/19 14:29:42;;;;;;;;;;;26.20;70.80;;;;;;4360284;33;43370;-73
2021/06/19 14:32:12;;;;;;;;;;;26.20;70.60;;;;;;4359564;33;45005;-72
2021/06/19 14:34:39;;;;;;;;;;;26.20;70.60;;;;;;4360064;33;38607;-72
2021/06/19 14:37:09;;;;;;;;;;;26.20;70.60;;;;;;4359733;33;43614;-72
2021/06/19 14:39:38;;;;;;;;;;;26.20;70.50;;;;;;4346868;33;23379;-72
2021/06/19 14:42:11;;;;;;;;;;;26.20;70.50;;;;;;4361166;33;20023;-72